Pendleton, TX

8:16 AM CDT on May 06, 2015 (GMT -0500)
McGregor Executive | | Change Station
CLOSE
Current Station
Airport
Location: McGregor,
Elevation: 591 ft
Nearby Weather Stations

Elev 591 ft 31.48 °N, 97.32 °W | Updated 21 minutes ago

Overcast
Overcast
68 °F
Feels Like 68 °F
N
10
Wind Variable Wind from SSE

Today
High -- | Low -- °F
--% Chance of Precip.
Yesterday
High -- | Low -- °F
Precip. -- in
6:40 AM 8:11 PM
Waning Gibbous, 94% visible
Pressure 29.97 in
Visibility 10.0 miles
Clouds Few 3000 ft
Scattered Clouds 3700 ft
Overcast 4600 ft
Dew Point 61 °F
Humidity 78%
Rainfall 0.27 in
Snow Depth Not available.
UV 0 out of 12
Pollen 3.30 out of 12
Air Quality Not available.
Flu Activity Sporadic
METAR KPWG 061255Z AUTO 15009KT 10SM FEW030 SCT037 OVC046 20/16 A2997 RMK AO1

More Conditions Fewer Conditions

Pressure 29.97 in
Visibility 10.0 miles
Clouds Few 3000 ft
Scattered Clouds 3700 ft
Overcast 4600 ft
Dew Point 61 °F
Humidity 78%
Rainfall 0.27 in
Snow Depth Not available.
UV 0 out of 12
Pollen 3.30 out of 12
Air Quality Not available.
Flu Activity Sporadic
METAR KPWG 061255Z AUTO 15009KT 10SM FEW030 SCT037 OVC046 20/16 A2997 RMK AO1

More Conditions Fewer Conditions

10-Day Weather Forecast

Almanac

Astronomy

May. 06, 2015 Rise Set
Actual Time
Civil Twilight
Nautical Twilight
Astronomical Twilight
Moon
Length of Visible Light
Length of Day
Tomorrow will be .
, % of the Moon is Illuminated

Today's Extremes

State Highs State Lows

Community

WunderPhotos

Upload Photos

1,818,894 photos uploaded!

WunderBlogs® & News

Nearby

Air Quality

  Air Quality AQ Index Pollutant
Not available.

Snow Depth

Station Depth Elevation

Earthquake Activity

City Distance Mag. Time & Date
Minimum magnitude displayed is 2.5.

Coastal Water Temperatures

Place Temperature

Stations

Nearby Weather Stations

Station Location Temp. Windchill Dew Point Humidity Wind Precip. Elev Updated Type